createdAt,value
2019-05-19T00:00:41.683Z,99.99
2019-05-19T00:01:41.704Z,99.99
2019-05-19T00:02:41.695Z,99.99
2019-05-19T00:03:41.759Z,99.99
2019-05-19T00:04:41.716Z,99.99
2019-05-19T00:05:41.685Z,99.99
2019-05-19T00:06:41.763Z,99.99
2019-05-19T00:07:41.761Z,99.99
2019-05-19T00:08:41.702Z,99.99
2019-05-19T00:09:41.733Z,99.99
2019-05-19T00:10:41.639Z,99.99
2019-05-19T00:11:41.738Z,99.99
2019-05-19T00:12:41.681Z,99.99
2019-05-19T00:13:41.632Z,99.99
2019-05-19T00:14:41.634Z,99.99
2019-05-19T00:15:41.743Z,99.99
2019-05-19T00:16:41.739Z,99.99
2019-05-19T00:17:41.659Z,99.99
2019-05-19T00:18:41.662Z,99.99
2019-05-19T00:19:41.711Z,99.99
2019-05-19T00:20:41.719Z,99.99
2019-05-19T00:21:41.772Z,99.99
2019-05-19T00:22:41.770Z,99.99
2019-05-19T00:23:41.806Z,99.99
2019-05-19T00:24:41.772Z,99.99
2019-05-19T00:25:41.781Z,99.99
2019-05-19T00:26:41.779Z,99.99
2019-05-19T00:27:41.777Z,99.99
2019-05-19T00:28:41.775Z,99.99
2019-05-19T00:29:41.718Z,99.99
2019-05-19T00:30:41.778Z,99.99
2019-05-19T00:31:41.796Z,99.99
2019-05-19T00:32:41.781Z,99.99
2019-05-19T00:33:41.709Z,99.99
2019-05-19T00:34:41.743Z,99.99
2019-05-19T00:35:41.780Z,99.99
2019-05-19T00:36:41.733Z,99.99
2019-05-19T00:37:41.788Z,99.99
2019-05-19T00:38:41.783Z,99.99
2019-05-19T00:39:41.787Z,99.99
2019-05-19T00:40:41.741Z,99.99
2019-05-19T00:41:41.798Z,99.99
2019-05-19T00:42:41.847Z,99.99
2019-05-19T00:43:41.786Z,99.99
2019-05-19T00:44:41.787Z,99.99
2019-05-19T00:45:41.714Z,99.99
2019-05-19T00:46:41.787Z,99.99
2019-05-19T00:47:41.792Z,99.99
2019-05-19T00:48:41.734Z,99.99
2019-05-19T00:49:41.910Z,99.99
2019-05-19T00:50:41.906Z,99.99
2019-05-19T00:51:41.802Z,99.99
2019-05-19T00:52:41.804Z,99.99
2019-05-19T00:53:41.808Z,99.99
2019-05-19T00:54:41.722Z,99.99
2019-05-19T00:55:41.725Z,99.99
2019-05-19T00:56:41.798Z,99.99
2019-05-19T00:57:41.805Z,99.99
2019-05-19T00:58:41.801Z,99.99
2019-05-19T00:59:41.800Z,99.99
2019-05-19T01:00:41.720Z,99.99
2019-05-19T01:01:41.794Z,99.99
2019-05-19T01:02:41.720Z,99.99
2019-05-19T01:03:41.722Z,99.99
2019-05-19T01:04:41.797Z,99.99
2019-05-19T01:05:41.789Z,99.99
2019-05-19T01:06:41.720Z,99.99
2019-05-19T01:07:41.723Z,99.99
2019-05-19T01:08:41.794Z,99.99
2019-05-19T01:09:41.755Z,99.99
2019-05-19T01:10:41.807Z,99.99
2019-05-19T01:11:41.736Z,99.99
2019-05-19T01:12:41.809Z,99.99
2019-05-19T01:13:41.813Z,99.99
2019-05-19T01:14:41.815Z,99.99
2019-05-19T01:15:41.815Z,99.99
2019-05-19T01:16:41.810Z,99.99
2019-05-19T01:17:41.735Z,99.99
2019-05-19T01:18:41.797Z,99.99
2019-05-19T01:19:55.214Z,99.99
2019-05-19T01:20:41.684Z,99.99
2019-05-19T01:21:41.788Z,99.99
2019-05-19T01:22:41.751Z,99.99
2019-05-19T01:23:41.817Z,99.99
2019-05-19T01:24:41.737Z,99.99
2019-05-19T01:25:41.746Z,99.99
2019-05-19T01:26:41.748Z,99.99
2019-05-19T01:27:41.750Z,99.99
2019-05-19T01:28:41.793Z,99.99
2019-05-19T01:29:41.830Z,99.99
2019-05-19T01:30:41.835Z,99.99
2019-05-19T01:31:41.831Z,99.99
2019-05-19T01:32:41.823Z,99.99
2019-05-19T01:33:41.705Z,99.99
2019-05-19T01:34:41.826Z,99.99
2019-05-19T01:35:41.789Z,99.99
2019-05-19T01:36:41.839Z,99.99
2019-05-19T01:37:41.830Z,99.99
2019-05-19T01:38:41.756Z,99.99
2019-05-19T01:39:41.854Z,99.99
2019-05-19T01:40:41.813Z,99.99
2019-05-19T01:41:41.740Z,99.99
2019-05-19T01:42:41.766Z,99.99
2019-05-19T01:43:41.744Z,99.99
2019-05-19T01:44:41.817Z,99.99
2019-05-19T01:45:41.817Z,99.99
2019-05-19T01:46:41.749Z,99.99
2019-05-19T01:47:41.758Z,99.99
2019-05-19T01:48:41.748Z,99.99
2019-05-19T01:49:41.821Z,99.99
2019-05-19T01:50:41.750Z,99.99
2019-05-19T01:51:41.821Z,99.99
2019-05-19T01:52:41.762Z,99.99
2019-05-19T01:53:41.763Z,99.99
2019-05-19T01:54:41.825Z,99.99
2019-05-19T01:55:41.825Z,99.99
2019-05-19T01:56:41.825Z,99.99
2019-05-19T01:57:41.757Z,99.99
2019-05-19T01:58:41.877Z,99.99
2019-05-19T01:59:41.727Z,99.99
2019-05-19T02:00:41.825Z,99.99
2019-05-19T02:01:41.773Z,99.99
2019-05-19T02:02:41.810Z,99.99
2019-05-19T02:03:41.779Z,99.99
2019-05-19T02:04:41.826Z,99.99
2019-05-19T02:05:41.829Z,99.99
2019-05-19T02:06:46.103Z,99.99
2019-05-19T02:07:41.831Z,99.99
2019-05-19T02:08:41.775Z,99.99
2019-05-19T02:09:41.840Z,99.99
2019-05-19T02:10:41.760Z,99.99
2019-05-19T02:11:41.787Z,99.99
2019-05-19T02:12:41.826Z,99.99
2019-05-19T02:13:41.828Z,99.99
2019-05-19T02:14:41.746Z,99.99
2019-05-19T02:15:41.838Z,99.99
2019-05-19T02:16:41.792Z,99.99
2019-05-19T02:17:41.840Z,99.99
2019-05-19T02:18:41.839Z,99.99
2019-05-19T02:19:41.801Z,99.99
2019-05-19T02:20:41.741Z,99.99
2019-05-19T02:21:41.705Z,99.99
2019-05-19T02:22:41.784Z,99.99
2019-05-19T02:23:41.712Z,99.99
2019-05-19T02:24:41.706Z,99.99
2019-05-19T02:25:41.830Z,99.99
2019-05-19T02:26:41.776Z,99.99
2019-05-19T02:27:41.717Z,99.99
2019-05-19T02:28:41.814Z,99.99
2019-05-19T02:29:41.791Z,99.99
2019-05-19T02:30:41.792Z,99.99
2019-05-19T02:31:41.806Z,99.99
2019-05-19T02:32:41.795Z,99.99
2019-05-19T02:33:41.865Z,99.99
2019-05-19T02:34:41.865Z,99.99
2019-05-19T02:35:41.880Z,99.99
2019-05-19T02:36:41.883Z,99.99
2019-05-19T02:37:41.877Z,99.99
2019-05-19T02:38:41.803Z,99.99
2019-05-19T02:39:41.884Z,99.99
2019-05-19T02:40:41.871Z,99.99
2019-05-19T02:41:41.816Z,99.99
2019-05-19T02:42:41.880Z,99.99
2019-05-19T02:43:41.874Z,99.99
2019-05-19T02:44:41.881Z,99.99
2019-05-19T02:45:41.804Z,99.99
2019-05-19T02:46:41.820Z,99.99
2019-05-19T02:47:41.893Z,99.99
2019-05-19T02:48:41.906Z,99.99
2019-05-19T02:49:41.799Z,99.99
2019-05-19T02:50:51.427Z,99.99
2019-05-19T02:51:41.795Z,99.99
2019-05-19T02:52:41.890Z,99.99
2019-05-19T02:53:41.810Z,99.99
2019-05-19T02:54:41.799Z,99.99
2019-05-19T02:55:41.833Z,99.99
2019-05-19T02:56:41.870Z,99.99
2019-05-19T02:57:41.810Z,99.99
2019-05-19T02:58:41.882Z,99.99
2019-05-19T02:59:41.896Z,99.99
2019-05-19T03:00:41.967Z,99.99
2019-05-19T03:01:41.902Z,99.99
2019-05-19T03:02:41.781Z,99.99
2019-05-19T03:03:41.836Z,99.99
2019-05-19T03:04:41.888Z,99.99
2019-05-19T03:05:41.889Z,99.99
2019-05-19T03:06:41.843Z,99.99
2019-05-19T03:07:41.894Z,99.99
2019-05-19T03:08:41.900Z,99.99
2019-05-19T03:09:41.905Z,99.99
2019-05-19T03:10:41.905Z,99.99
2019-05-19T03:11:41.816Z,99.99
2019-05-19T03:12:41.890Z,99.99
2019-05-19T03:13:41.898Z,99.99
2019-05-19T03:14:41.885Z,99.99
2019-05-19T03:15:41.949Z,99.99
2019-05-19T03:16:41.827Z,99.99
2019-05-19T03:17:41.897Z,99.99
2019-05-19T03:18:41.897Z,99.99
2019-05-19T03:19:41.908Z,99.99
2019-05-19T03:20:41.832Z,99.99
2019-05-19T03:21:41.828Z,99.99
2019-05-19T03:22:41.832Z,99.99
2019-05-19T03:23:41.837Z,99.99
2019-05-19T03:24:41.918Z,99.99
2019-05-19T03:25:44.255Z,99.99
2019-05-19T03:26:41.905Z,99.99
2019-05-19T03:27:41.908Z,99.99
2019-05-19T03:28:41.902Z,99.99
2019-05-19T03:29:41.871Z,99.99
2019-05-19T03:30:41.854Z,99.99
2019-05-19T03:31:41.883Z,99.99
2019-05-19T03:32:41.967Z,99.99
2019-05-19T03:33:41.871Z,99.99
2019-05-19T03:34:41.873Z,99.99
2019-05-19T03:35:41.866Z,99.99
2019-05-19T03:36:41.845Z,99.99
2019-05-19T03:37:41.845Z,99.99
2019-05-19T03:38:41.910Z,99.99
2019-05-19T03:39:41.844Z,99.99
2019-05-19T03:40:41.796Z,99.99
2019-05-19T03:41:41.903Z,99.99
2019-05-19T03:42:41.778Z,99.99
2019-05-19T03:43:41.879Z,99.99
2019-05-19T03:44:41.801Z,99.99
2019-05-19T03:45:41.784Z,99.99
2019-05-19T03:46:41.824Z,99.99
2019-05-19T03:47:41.791Z,99.99
2019-05-19T03:48:41.867Z,99.99
2019-05-19T03:49:41.783Z,99.99
2019-05-19T03:50:41.923Z,99.99
2019-05-19T03:51:41.887Z,99.99
2019-05-19T03:52:41.932Z,99.99
2019-05-19T03:53:41.848Z,99.99
2019-05-19T03:54:41.923Z,99.99
2019-05-19T03:55:41.926Z,99.99
2019-05-19T03:56:41.943Z,99.99
2019-05-19T03:57:41.894Z,99.99
2019-05-19T03:58:41.853Z,99.99
2019-05-19T03:59:41.941Z,99.99
2019-05-19T04:00:41.838Z,99.99
2019-05-19T04:01:41.839Z,99.99
2019-05-19T04:02:41.854Z,99.99
2019-05-19T04:03:41.871Z,99.99
2019-05-19T04:04:41.854Z,99.99
2019-05-19T04:05:41.885Z,99.99
2019-05-19T04:06:41.843Z,99.99
2019-05-19T04:07:41.846Z,99.99
2019-05-19T04:08:41.930Z,99.99
2019-05-19T04:09:41.926Z,99.99
2019-05-19T04:10:41.867Z,99.99
2019-05-19T04:11:41.936Z,99.99
2019-05-19T04:12:41.930Z,99.99
2019-05-19T04:13:41.936Z,99.99
2019-05-19T04:14:41.949Z,99.99
2019-05-19T04:15:41.876Z,99.99
2019-05-19T04:16:41.990Z,99.99
2019-05-19T04:17:41.882Z,99.99
2019-05-19T04:18:41.879Z,99.99
2019-05-19T04:19:41.869Z,99.99
2019-05-19T04:20:41.864Z,99.99
2019-05-19T04:21:48.945Z,99.99
2019-05-19T04:22:41.876Z,99.99
2019-05-19T04:23:41.871Z,99.99
2019-05-19T04:24:41.932Z,99.99
2019-05-19T04:25:41.863Z,99.99
2019-05-19T04:26:41.937Z,99.99
2019-05-19T04:27:41.862Z,99.99
2019-05-19T04:28:41.882Z,99.99
2019-05-19T04:29:41.964Z,99.99
2019-05-19T04:30:41.878Z,99.99
2019-05-19T04:31:41.945Z,99.99
2019-05-19T04:32:41.887Z,99.99
2019-05-19T04:33:41.966Z,99.99
2019-05-19T04:34:41.891Z,99.99
2019-05-19T04:35:41.951Z,99.99
2019-05-19T04:36:41.954Z,99.99
2019-05-19T04:37:41.975Z,99.99
2019-05-19T04:38:41.957Z,99.99
2019-05-19T04:39:41.890Z,99.99
2019-05-19T04:40:41.958Z,99.99
2019-05-19T04:41:41.892Z,99.99
2019-05-19T04:42:41.895Z,99.99
2019-05-19T04:43:42.052Z,99.99
2019-05-19T04:44:41.892Z,99.99
2019-05-19T04:45:41.902Z,99.99
2019-05-19T04:46:41.959Z,99.99
2019-05-19T04:47:41.904Z,99.99
2019-05-19T04:48:41.961Z,99.99
2019-05-19T04:49:41.933Z,99.99
2019-05-19T04:50:41.976Z,99.99
2019-05-19T04:51:41.903Z,99.99
2019-05-19T04:52:41.983Z,99.99
2019-05-19T04:53:41.962Z,99.99
2019-05-19T04:54:41.898Z,99.99
2019-05-19T04:55:41.983Z,99.99
2019-05-19T04:56:41.976Z,99.99
2019-05-19T04:57:41.867Z,99.99
2019-05-19T04:58:41.975Z,99.99
2019-05-19T04:59:41.982Z,99.99
2019-05-19T05:00:41.995Z,99.99
2019-05-19T05:01:41.982Z,99.99
2019-05-19T05:02:41.898Z,99.99
2019-05-19T05:03:41.899Z,99.99
2019-05-19T05:04:41.996Z,99.99
2019-05-19T05:05:41.976Z,99.99
2019-05-19T05:06:41.986Z,99.99
2019-05-19T05:07:42.076Z,99.99
2019-05-19T05:08:41.908Z,99.99
2019-05-19T05:09:41.975Z,99.99
2019-05-19T05:10:41.981Z,99.99
2019-05-19T05:11:41.918Z,99.99
2019-05-19T05:12:41.995Z,99.99
2019-05-19T05:13:41.978Z,99.99
2019-05-19T05:14:41.905Z,99.99
2019-05-19T05:15:41.983Z,99.99
2019-05-19T05:16:41.980Z,99.99
2019-05-19T05:17:42.041Z,99.99
2019-05-19T05:18:41.917Z,99.99
2019-05-19T05:19:41.913Z,99.99
2019-05-19T05:20:41.988Z,99.99
2019-05-19T05:21:41.916Z,99.99
2019-05-19T05:22:41.939Z,99.99
2019-05-19T05:23:41.921Z,99.99
2019-05-19T05:24:42.003Z,99.99
2019-05-19T05:25:41.992Z,99.99
2019-05-19T05:26:41.917Z,99.99
2019-05-19T05:27:41.992Z,99.99
2019-05-19T05:28:41.982Z,99.99
2019-05-19T05:29:41.993Z,99.99
2019-05-19T05:30:41.903Z,99.99
2019-05-19T05:31:41.910Z,99.99
2019-05-19T05:32:41.982Z,99.99
2019-05-19T05:33:41.922Z,99.99
2019-05-19T05:34:41.908Z,99.99
2019-05-19T05:35:41.986Z,99.99
2019-05-19T05:36:41.915Z,99.99
2019-05-19T05:37:41.992Z,99.99
2019-05-19T05:38:41.986Z,99.99
2019-05-19T05:39:41.928Z,99.99
2019-05-19T05:40:42.013Z,99.99
2019-05-19T05:41:41.917Z,99.99
2019-05-19T05:42:41.990Z,99.99
2019-05-19T05:43:41.917Z,99.99
2019-05-19T05:44:41.998Z,99.99
2019-05-19T05:45:41.994Z,99.99
2019-05-19T05:46:41.921Z,99.99
2019-05-19T05:47:41.993Z,99.99
2019-05-19T05:48:41.922Z,99.99
2019-05-19T05:49:42.009Z,99.99
2019-05-19T05:50:41.944Z,99.99
2019-05-19T05:51:42.052Z,99.99
2019-05-19T05:52:42.024Z,99.99
2019-05-19T05:53:41.940Z,99.99
2019-05-19T05:54:42.011Z,99.99
2019-05-19T05:55:41.953Z,99.99
2019-05-19T05:56:42.111Z,99.99
2019-05-19T05:57:42.012Z,99.99
2019-05-19T05:58:41.942Z,99.99
2019-05-19T05:59:42.014Z,99.99
2019-05-19T06:00:42.020Z,99.99
2019-05-19T06:01:41.955Z,99.99
2019-05-19T06:02:41.950Z,99.99
2019-05-19T06:03:41.946Z,99.99
2019-05-19T06:04:42.039Z,99.99
2019-05-19T06:05:42.024Z,99.99
2019-05-19T06:06:41.934Z,99.99
2019-05-19T06:07:41.950Z,99.48
2019-05-19T06:08:42.023Z,97.07
2019-05-19T06:09:42.021Z,94.72
2019-05-19T06:10:42.049Z,93.13
2019-05-19T06:11:41.974Z,92.14
2019-05-19T06:12:41.960Z,91.55
2019-05-19T06:13:42.055Z,91.68
2019-05-19T06:14:42.034Z,90.96
2019-05-19T06:15:42.054Z,90.77
2019-05-19T06:16:42.033Z,90.53
2019-05-19T06:17:41.972Z,90.07
2019-05-19T06:18:42.029Z,89.91
2019-05-19T06:19:41.967Z,89.94
2019-05-19T06:20:41.960Z,90.39
2019-05-19T06:21:41.970Z,90.26
2019-05-19T06:22:55.058Z,90.36
2019-05-19T06:23:42.033Z,89.94
2019-05-19T06:24:42.033Z,89.06
2019-05-19T06:25:41.984Z,88.57
2019-05-19T06:26:41.960Z,88.95
2019-05-19T06:27:42.042Z,89.51
2019-05-19T06:28:41.975Z,89.08
2019-05-19T06:29:42.037Z,88.36
2019-05-19T06:30:42.034Z,87.56
2019-05-19T06:31:42.036Z,84.63
2019-05-19T06:32:42.046Z,84.55
2019-05-19T06:33:41.984Z,84.71
2019-05-19T06:34:41.971Z,85.19
2019-05-19T06:35:42.043Z,85.56
2019-05-19T06:36:42.003Z,86.12
2019-05-19T06:37:41.977Z,86.89
2019-05-19T06:38:42.058Z,86.84
2019-05-19T06:39:42.054Z,86.07
2019-05-19T06:40:41.995Z,86.20
2019-05-19T06:41:42.044Z,86.38
2019-05-19T06:42:42.046Z,85.75
2019-05-19T06:43:42.047Z,83.70
2019-05-19T06:44:41.975Z,82.64
2019-05-19T06:45:41.957Z,82.51
2019-05-19T06:46:42.066Z,82.45
2019-05-19T06:47:42.010Z,82.67
2019-05-19T06:48:42.049Z,82.27
2019-05-19T06:49:42.002Z,81.71
2019-05-19T06:50:42.064Z,81.05
2019-05-19T06:51:41.969Z,81.13
2019-05-19T06:52:42.045Z,81.37
2019-05-19T06:53:41.969Z,81.34
2019-05-19T06:54:42.044Z,80.41
2019-05-19T06:55:41.981Z,79.47
2019-05-19T06:56:41.974Z,79.79
2019-05-19T06:57:42.064Z,81.21
2019-05-19T06:58:41.977Z,80.18
2019-05-19T06:59:41.973Z,77.97
2019-05-19T07:00:42.044Z,77.44
2019-05-19T07:01:42.049Z,78.31
2019-05-19T07:02:42.017Z,76.86
2019-05-19T07:03:41.992Z,77.81
2019-05-19T07:04:41.953Z,78.07
2019-05-19T07:05:41.992Z,77.99
2019-05-19T07:06:41.971Z,77.28
2019-05-19T07:07:42.050Z,77.81
2019-05-19T07:08:42.047Z,76.73
2019-05-19T07:09:57.134Z,76.34
2019-05-19T07:10:42.004Z,75.89
2019-05-19T07:11:42.079Z,73.82
2019-05-19T07:12:42.026Z,73.48
2019-05-19T07:13:41.994Z,73.50
2019-05-19T07:14:42.073Z,73.58
2019-05-19T07:15:42.066Z,74.26
2019-05-19T07:16:42.030Z,74.50
2019-05-19T07:17:42.003Z,73.08
2019-05-19T07:18:42.078Z,75.10
2019-05-19T07:19:42.002Z,74.00
2019-05-19T07:20:41.958Z,73.58
2019-05-19T07:21:41.957Z,73.82
2019-05-19T07:22:41.977Z,74.13
2019-05-19T07:23:42.026Z,73.79
2019-05-19T07:24:42.059Z,75.23
2019-05-19T07:25:42.034Z,74.79
2019-05-19T07:26:41.962Z,72.80
2019-05-19T07:27:42.021Z,72.01
2019-05-19T07:28:42.005Z,72.51
2019-05-19T07:29:42.015Z,72.28
2019-05-19T07:30:42.009Z,71.21
2019-05-19T07:31:42.079Z,71.94
2019-05-19T07:32:42.084Z,72.93
2019-05-19T07:33:42.022Z,71.47
2019-05-19T07:34:42.010Z,69.57
2019-05-19T07:35:42.084Z,69.23
2019-05-19T07:36:42.097Z,68.47
2019-05-19T07:37:42.027Z,69.44
2019-05-19T07:38:42.028Z,69.15
2019-05-19T07:39:42.090Z,69.15
2019-05-19T07:40:42.032Z,69.41
2019-05-19T07:41:42.032Z,70.50
2019-05-19T07:42:41.986Z,67.52
2019-05-19T07:43:42.024Z,67.93
2019-05-19T07:44:45.199Z,66.77
2019-05-19T07:45:42.022Z,65.73
2019-05-19T07:46:41.978Z,65.73
2019-05-19T07:47:41.967Z,66.22
2019-05-19T07:48:41.940Z,64.49
2019-05-19T07:49:41.958Z,65.86
2019-05-19T07:50:42.079Z,64.98
2019-05-19T07:51:42.012Z,64.72
2019-05-19T07:52:42.008Z,65.24
2019-05-19T07:53:43.308Z,65.70
2019-05-19T07:54:42.017Z,68.55
2019-05-19T07:55:42.095Z,66.53
2019-05-19T07:56:42.017Z,67.62
2019-05-19T07:57:42.089Z,68.04
2019-05-19T07:58:42.094Z,67.52
2019-05-19T07:59:42.090Z,68.27
2019-05-19T08:00:42.040Z,68.84
2019-05-19T08:01:42.037Z,67.28
2019-05-19T08:02:42.118Z,67.28
2019-05-19T08:03:42.116Z,65.81
2019-05-19T08:04:42.035Z,66.25
2019-05-19T08:05:42.041Z,65.58
2019-05-19T08:06:42.111Z,65.42
2019-05-19T08:07:42.050Z,64.93
2019-05-19T08:08:42.114Z,64.88
2019-05-19T08:09:42.040Z,66.45
2019-05-19T08:10:42.120Z,67.05
2019-05-19T08:11:42.139Z,66.14
2019-05-19T08:12:42.160Z,65.32
2019-05-19T08:13:42.044Z,65.03
2019-05-19T08:14:42.116Z,65.68
2019-05-19T08:15:42.211Z,68.43
2019-05-19T08:16:42.042Z,67.31
2019-05-19T08:17:42.143Z,65.34
2019-05-19T08:18:42.126Z,65.37
2019-05-19T08:19:42.114Z,63.15
2019-05-19T08:20:42.045Z,62.30
2019-05-19T08:21:42.052Z,62.69
2019-05-19T08:22:42.064Z,60.45
2019-05-19T08:23:42.114Z,60.61
2019-05-19T08:24:42.052Z,59.58
2019-05-19T08:25:42.122Z,60.33
2019-05-19T08:26:42.122Z,57.21
2019-05-19T08:27:42.080Z,57.33
2019-05-19T08:28:42.056Z,58.23
2019-05-19T08:29:42.124Z,56.65
2019-05-19T08:30:42.060Z,56.95
2019-05-19T08:31:42.220Z,55.60
2019-05-19T08:32:42.121Z,57.15
2019-05-19T08:33:42.070Z,57.00
2019-05-19T08:34:42.054Z,57.30
2019-05-19T08:35:42.125Z,57.66
2019-05-19T08:36:42.145Z,56.36
2019-05-19T08:37:42.059Z,55.72
2019-05-19T08:38:42.107Z,56.69
2019-05-19T08:39:42.129Z,56.49
2019-05-19T08:40:42.072Z,58.04
2019-05-19T08:41:42.063Z,57.46
2019-05-19T08:42:42.138Z,57.23
2019-05-19T08:43:42.139Z,58.68
2019-05-19T08:44:42.159Z,58.56
2019-05-19T08:45:42.067Z,56.57
2019-05-19T08:46:42.144Z,56.26
2019-05-19T08:47:42.138Z,58.27
2019-05-19T08:48:42.074Z,59.61
2019-05-19T08:49:42.076Z,56.31
2019-05-19T08:50:42.135Z,57.15
2019-05-19T08:51:42.302Z,56.18
2019-05-19T08:52:42.130Z,57.13
2019-05-19T08:53:42.087Z,55.85
2019-05-19T08:54:42.084Z,56.39
2019-05-19T08:55:42.037Z,57.66
2019-05-19T08:56:42.121Z,56.61
2019-05-19T08:57:42.095Z,60.53
2019-05-19T08:58:42.095Z,55.52
2019-05-19T08:59:42.020Z,53.14
2019-05-19T09:00:42.074Z,52.04
2019-05-19T09:01:42.142Z,52.83
2019-05-19T09:02:42.162Z,53.18
2019-05-19T09:03:42.154Z,52.30
2019-05-19T09:04:42.153Z,53.42
2019-05-19T09:05:42.080Z,53.14
2019-05-19T09:06:42.151Z,50.88
2019-05-19T09:07:42.079Z,51.33
2019-05-19T09:08:42.149Z,48.77
2019-05-19T09:09:42.082Z,49.14
2019-05-19T09:10:42.086Z,47.96
2019-05-19T09:11:42.151Z,46.43
2019-05-19T09:12:42.150Z,49.97
2019-05-19T09:13:42.152Z,51.59
2019-05-19T09:14:42.147Z,49.67
2019-05-19T09:15:42.087Z,49.12
2019-05-19T09:16:42.114Z,49.60
2019-05-19T09:17:42.089Z,53.29
2019-05-19T09:18:42.106Z,48.54
2019-05-19T09:19:42.057Z,53.18
2019-05-19T09:20:42.005Z,48.99
2019-05-19T09:21:42.164Z,49.72
2019-05-19T09:23:42.083Z,48.21
2019-05-19T09:24:42.116Z,45.95
2019-05-19T09:25:42.110Z,47.76
2019-05-19T09:26:42.043Z,47.20
2019-05-19T09:27:42.084Z,47.10
2019-05-19T09:28:42.114Z,46.38
2019-05-19T09:29:42.116Z,46.68
2019-05-19T09:30:42.147Z,46.68
2019-05-19T09:31:42.119Z,46.48
2019-05-19T09:32:42.067Z,46.85
2019-05-19T09:33:42.095Z,47.15
2019-05-19T09:34:42.083Z,46.90
2019-05-19T09:35:42.059Z,46.73
2019-05-19T09:36:42.160Z,47.65
2019-05-19T09:37:42.071Z,49.09
2019-05-19T09:38:42.108Z,48.26
2019-05-19T09:39:42.098Z,46.20
2019-05-19T09:40:42.172Z,46.48
2019-05-19T09:41:42.172Z,45.87
2019-05-19T09:42:42.110Z,45.32
2019-05-19T09:43:42.118Z,48.01
2019-05-19T09:44:42.138Z,48.36
2019-05-19T09:45:42.110Z,47.93
2019-05-19T09:46:42.179Z,49.64
2019-05-19T09:47:42.110Z,45.25
2019-05-19T09:48:42.109Z,47.78
2019-05-19T09:49:42.113Z,46.45
2019-05-19T09:50:42.114Z,46.45
2019-05-19T09:51:42.156Z,48.31
2019-05-19T09:52:42.043Z,48.59
2019-05-19T09:53:42.111Z,46.65
2019-05-19T09:54:45.220Z,47.20
2019-05-19T09:55:42.055Z,48.34
2019-05-19T09:56:42.114Z,50.22
2019-05-19T09:57:42.109Z,47.36
2019-05-19T09:58:42.136Z,48.97
2019-05-19T09:59:42.132Z,45.70
2019-05-19T10:00:42.187Z,45.73
2019-05-19T10:01:42.198Z,45.57
2019-05-19T10:02:42.120Z,46.52
2019-05-19T10:03:42.196Z,44.68
2019-05-19T10:04:42.138Z,42.95
2019-05-19T10:05:42.199Z,45.90
2019-05-19T10:06:42.298Z,46.25
2019-05-19T10:07:42.194Z,47.56
2019-05-19T10:08:42.199Z,41.63
2019-05-19T10:09:42.093Z,44.75
2019-05-19T10:10:42.127Z,44.27
2019-05-19T10:11:42.133Z,40.06
2019-05-19T10:12:42.196Z,44.50
2019-05-19T10:13:42.202Z,42.58
2019-05-19T10:14:42.136Z,44.15
2019-05-19T10:15:42.196Z,45.40
2019-05-19T10:16:42.133Z,45.20
2019-05-19T10:17:42.268Z,40.76
2019-05-19T10:18:42.201Z,42.40
2019-05-19T10:19:42.205Z,43.85
2019-05-19T10:20:42.135Z,43.88
2019-05-19T10:21:42.142Z,44.70
2019-05-19T10:22:42.142Z,45.95
2019-05-19T10:23:42.133Z,45.55
2019-05-19T10:24:57.532Z,46.52
2019-05-19T10:25:42.138Z,48.54
2019-05-19T10:26:42.219Z,46.20
2019-05-19T10:27:42.139Z,44.68
2019-05-19T10:28:42.138Z,43.47
2019-05-19T10:29:42.217Z,45.95
2019-05-19T10:30:42.211Z,46.58
2019-05-19T10:31:42.213Z,41.63
2019-05-19T10:32:42.223Z,45.15
2019-05-19T10:33:42.147Z,42.53
2019-05-19T10:34:42.146Z,44.22
2019-05-19T10:35:42.215Z,44.10
2019-05-19T10:36:42.217Z,41.06
2019-05-19T10:37:42.227Z,40.43
2019-05-19T10:38:42.150Z,40.51
2019-05-19T10:39:42.217Z,38.38
2019-05-19T10:40:42.216Z,37.96
2019-05-19T10:41:42.203Z,40.29
2019-05-19T10:42:42.137Z,40.81
2019-05-19T10:43:42.177Z,41.40
2019-05-19T10:44:42.219Z,43.92
2019-05-19T10:45:42.124Z,42.72
2019-05-19T10:46:42.210Z,42.35
2019-05-19T10:47:42.216Z,43.33
2019-05-19T10:48:42.138Z,40.81
2019-05-19T10:49:43.105Z,43.02
2019-05-19T10:50:42.127Z,41.73
2019-05-19T10:51:42.146Z,40.01
2019-05-19T10:52:42.219Z,39.17
2019-05-19T10:53:42.216Z,42.97
2019-05-19T10:54:42.149Z,44.02
2019-05-19T10:55:42.142Z,45.65
2019-05-19T10:56:42.147Z,38.63
2019-05-19T10:57:42.153Z,43.20
2019-05-19T10:58:42.221Z,40.61
2019-05-19T10:59:42.227Z,39.52
2019-05-19T11:00:42.153Z,36.97
2019-05-19T11:01:42.236Z,37.19
2019-05-19T11:02:42.235Z,36.37
2019-05-19T11:03:42.166Z,38.99
2019-05-19T11:04:42.246Z,40.13
2019-05-19T11:05:42.253Z,43.40
2019-05-19T11:06:42.233Z,39.71
2019-05-19T11:07:42.171Z,41.03
2019-05-19T11:08:42.235Z,40.63
2019-05-19T11:09:42.183Z,47.15
2019-05-19T11:10:42.179Z,39.84
2019-05-19T11:11:42.226Z,40.88
2019-05-19T11:12:42.155Z,39.57
2019-05-19T11:13:42.156Z,42.75
2019-05-19T11:14:42.232Z,41.85
2019-05-19T11:15:42.171Z,40.66
2019-05-19T11:16:42.235Z,40.81
2019-05-19T11:17:42.197Z,42.03
2019-05-19T11:18:42.170Z,42.28
2019-05-19T11:19:42.235Z,43.13
2019-05-19T11:20:42.235Z,43.42
2019-05-19T11:21:42.182Z,42.85
2019-05-19T11:22:42.200Z,43.55
2019-05-19T11:23:42.252Z,43.33
2019-05-19T11:24:42.335Z,45.40
2019-05-19T11:25:50.974Z,47.38
2019-05-19T11:26:42.267Z,48.23
2019-05-19T11:27:42.186Z,49.19
2019-05-19T11:28:42.255Z,48.11
2019-05-19T11:29:42.250Z,47.73
2019-05-19T11:30:42.193Z,47.86
2019-05-19T11:31:42.266Z,48.44
2019-05-19T11:32:42.260Z,47.81
2019-05-19T11:33:42.197Z,47.96
2019-05-19T11:35:42.259Z,49.44
2019-05-19T11:36:42.268Z,48.72
2019-05-19T11:37:42.201Z,49.27
2019-05-19T11:38:42.261Z,50.55
2019-05-19T11:39:42.250Z,47.33
2019-05-19T11:40:42.191Z,46.98
2019-05-19T11:41:42.187Z,49.17
2019-05-19T11:42:42.258Z,50.60
2019-05-19T11:43:42.187Z,45.68
2019-05-19T11:44:42.186Z,47.73
2019-05-19T11:45:42.177Z,46.25
2019-05-19T11:46:42.165Z,46.30
2019-05-19T11:47:42.192Z,47.68
2019-05-19T11:48:42.189Z,49.32
2019-05-19T11:49:42.182Z,49.12
2019-05-19T11:50:42.522Z,47.08
2019-05-19T11:51:42.257Z,47.23
2019-05-19T11:52:42.261Z,45.73
2019-05-19T11:53:42.199Z,46.30
2019-05-19T11:54:42.189Z,47.08
2019-05-19T11:55:42.201Z,46.78
2019-05-19T11:56:42.323Z,46.70
2019-05-19T11:57:42.155Z,46.45
2019-05-19T11:58:42.199Z,44.82
2019-05-19T11:59:42.269Z,45.18
2019-05-19T12:00:42.196Z,46.38
2019-05-19T12:01:42.276Z,47.31
2019-05-19T12:02:42.212Z,50.13
2019-05-19T12:03:42.278Z,50.15
2019-05-19T12:04:42.292Z,47.65
2019-05-19T12:05:42.212Z,47.53
2019-05-19T12:06:42.283Z,48.34
2019-05-19T12:07:42.286Z,46.75
2019-05-19T12:08:42.281Z,47.15
2019-05-19T12:09:42.229Z,46.05
2019-05-19T12:10:42.282Z,45.20
2019-05-19T12:11:42.282Z,45.98
2019-05-19T12:12:42.349Z,47.63
2019-05-19T12:13:42.281Z,46.55
2019-05-19T12:14:42.286Z,46.30
2019-05-19T12:15:42.306Z,48.31
2019-05-19T12:16:42.233Z,49.90
2019-05-19T12:17:42.220Z,48.86
2019-05-19T12:18:42.292Z,48.79
2019-05-19T12:19:42.241Z,49.37
2019-05-19T12:20:42.306Z,47.63
2019-05-19T12:21:42.283Z,47.18
2019-05-19T12:22:42.165Z,46.98
2019-05-19T12:23:42.250Z,48.94
2019-05-19T12:24:42.221Z,47.98
2019-05-19T12:25:42.289Z,46.81
2019-05-19T12:26:42.220Z,46.00
2019-05-19T12:27:42.168Z,46.52
2019-05-19T12:28:42.191Z,45.37
2019-05-19T12:29:42.190Z,46.32
2019-05-19T12:30:42.288Z,45.90
2019-05-19T12:31:42.235Z,49.22
2019-05-19T12:32:42.288Z,48.23
2019-05-19T12:33:51.692Z,46.02
2019-05-19T12:34:42.308Z,45.27
2019-05-19T12:35:42.234Z,45.12
2019-05-19T12:36:42.245Z,46.98
2019-05-19T12:37:42.308Z,44.60
2019-05-19T12:38:42.239Z,42.62
2019-05-19T12:39:42.235Z,44.35
2019-05-19T12:40:42.307Z,46.70
2019-05-19T12:41:42.235Z,45.10
2019-05-19T12:42:42.246Z,43.55
2019-05-19T12:43:42.310Z,43.57
2019-05-19T12:44:42.381Z,42.33
2019-05-19T12:45:42.348Z,41.80
2019-05-19T12:46:42.310Z,42.10
2019-05-19T12:47:42.321Z,41.33
2019-05-19T12:48:42.315Z,43.50
2019-05-19T12:49:42.309Z,43.50
2019-05-19T12:50:42.310Z,42.92
2019-05-19T12:51:42.312Z,42.80
2019-05-19T12:52:42.318Z,40.78
2019-05-19T12:53:42.234Z,42.45
2019-05-19T12:54:42.191Z,41.58